createdAt,value
2022-10-19T00:00:47.808Z,61.11
2022-10-19T00:03:18.245Z,62.97
2022-10-19T00:05:47.416Z,62.90
2022-10-19T00:08:13.995Z,62.82
2022-10-19T00:10:41.345Z,61.22
2022-10-19T00:13:08.462Z,61.38
2022-10-19T00:15:39.421Z,61.01
2022-10-19T00:18:06.766Z,60.92
2022-10-19T00:20:34.165Z,60.84
2022-10-19T00:23:00.746Z,60.56
2022-10-19T00:25:27.427Z,60.52
2022-10-19T00:27:54.016Z,60.70
2022-10-19T00:30:20.839Z,59.97
2022-10-19T00:32:47.414Z,59.83
2022-10-19T00:35:14.011Z,60.45
2022-10-19T00:37:40.631Z,60.60
2022-10-19T00:40:08.041Z,60.35
2022-10-19T00:42:34.755Z,59.97
2022-10-19T00:45:06.573Z,59.86
2022-10-19T00:47:34.152Z,62.10
2022-10-19T00:50:01.139Z,64.05
2022-10-19T00:52:28.011Z,68.63
2022-10-19T00:54:56.996Z,70.71
2022-10-19T00:57:26.526Z,66.98
2022-10-19T00:59:53.187Z,64.06
2022-10-19T01:02:19.835Z,63.31
2022-10-19T01:04:51.861Z,62.96
2022-10-19T01:07:19.796Z,62.55
2022-10-19T01:09:46.734Z,62.28
2022-10-19T01:12:36.974Z,62.49
2022-10-19T01:15:33.710Z,62.67
2022-10-19T01:18:34.982Z,61.96
2022-10-19T01:21:26.162Z,60.69
2022-10-19T01:24:11.928Z,61.64
2022-10-19T01:26:56.467Z,60.95
2022-10-19T01:29:38.678Z,61.36
2022-10-19T01:32:24.152Z,61.22
2022-10-19T01:35:06.611Z,60.51
2022-10-19T01:37:44.082Z,60.76
2022-10-19T01:40:43.186Z,60.17
2022-10-19T01:43:19.063Z,60.49
2022-10-19T01:45:53.995Z,61.67
2022-10-19T01:48:29.274Z,61.10
2022-10-19T01:51:07.764Z,61.35
2022-10-19T01:53:41.710Z,61.97
2022-10-19T01:56:09.686Z,61.88
2022-10-19T01:58:39.608Z,62.62
2022-10-19T02:03:42.375Z,62.83
2022-10-19T02:06:11.590Z,62.95
2022-10-19T02:08:43.971Z,63.05
2022-10-19T02:11:10.829Z,63.65
2022-10-19T02:13:39.846Z,64.01
2022-10-19T02:16:10.982Z,65.17
2022-10-19T02:18:43.403Z,66.99
2022-10-19T02:21:10.706Z,67.02
2022-10-19T02:23:37.532Z,64.43
2022-10-19T02:26:04.792Z,64.04
2022-10-19T02:28:31.670Z,64.20
2022-10-19T02:30:59.184Z,64.49
2022-10-19T02:33:26.988Z,64.04
2022-10-19T02:35:53.633Z,63.33
2022-10-19T02:38:22.590Z,62.94
2022-10-19T02:41:02.283Z,62.38
2022-10-19T02:43:32.059Z,62.79
2022-10-19T02:46:08.719Z,64.42
2022-10-19T02:48:38.103Z,64.58
2022-10-19T02:51:04.746Z,63.72
2022-10-19T02:53:31.390Z,63.33
2022-10-19T02:55:58.079Z,62.74
2022-10-19T02:58:24.713Z,62.50
2022-10-19T03:00:51.358Z,62.15
2022-10-19T03:03:17.971Z,61.78
2022-10-19T03:05:44.600Z,62.04
2022-10-19T03:08:11.211Z,62.16
2022-10-19T03:10:37.797Z,62.21
2022-10-19T03:13:04.382Z,63.07
2022-10-19T03:15:30.977Z,62.50
2022-10-19T03:17:57.625Z,63.39
2022-10-19T03:20:24.279Z,63.62
2022-10-19T03:22:50.994Z,64.72
2022-10-19T03:25:17.681Z,66.79
2022-10-19T03:27:44.275Z,68.82
2022-10-19T03:30:11.219Z,69.45
2022-10-19T03:32:37.850Z,69.74
2022-10-19T03:35:04.897Z,70.07
2022-10-19T03:37:31.757Z,70.79
2022-10-19T03:39:58.619Z,71.56
2022-10-19T03:42:25.236Z,70.73
2022-10-19T03:44:51.810Z,71.21
2022-10-19T03:47:18.405Z,70.23
2022-10-19T03:49:45.091Z,70.80
2022-10-19T03:52:11.690Z,70.68
2022-10-19T03:54:38.415Z,71.28
2022-10-19T03:57:05.057Z,70.29
2022-10-19T03:59:31.838Z,68.48
2022-10-19T04:01:58.393Z,67.17
2022-10-19T04:04:25.110Z,66.86
2022-10-19T04:06:53.513Z,66.56
2022-10-19T04:09:22.073Z,65.82
2022-10-19T04:11:49.349Z,66.15
2022-10-19T04:14:26.860Z,66.10
2022-10-19T04:17:01.643Z,66.00
2022-10-19T04:19:28.352Z,65.42
2022-10-19T04:21:55.038Z,67.27
2022-10-19T04:24:21.755Z,67.02
2022-10-19T04:26:51.496Z,66.91
2022-10-19T04:29:20.163Z,66.30
2022-10-19T04:31:49.374Z,66.17
2022-10-19T04:34:16.423Z,65.10
2022-10-19T04:36:43.031Z,64.49
2022-10-19T04:39:09.911Z,64.49
2022-10-19T04:41:38.297Z,64.57
2022-10-19T04:44:08.625Z,64.78
2022-10-19T04:46:35.396Z,64.54
2022-10-19T04:49:04.287Z,64.14
2022-10-19T04:51:30.976Z,64.16
2022-10-19T04:53:59.665Z,64.47
2022-10-19T04:56:28.277Z,63.91
2022-10-19T04:58:57.521Z,65.92
2022-10-19T05:01:25.607Z,68.39
2022-10-19T05:04:00.557Z,67.78
2022-10-19T05:06:27.810Z,70.22
2022-10-19T05:08:54.505Z,68.83
2022-10-19T05:11:21.344Z,67.47
2022-10-19T05:13:48.888Z,66.25
2022-10-19T05:16:21.314Z,66.68
2022-10-19T05:18:59.676Z,65.60
2022-10-19T05:21:28.844Z,66.03
2022-10-19T05:23:56.706Z,65.62
2022-10-19T05:26:25.926Z,65.24
2022-10-19T05:28:59.450Z,65.23
2022-10-19T05:31:28.543Z,65.16
2022-10-19T05:33:58.641Z,64.99
2022-10-19T05:36:27.907Z,65.31
2022-10-19T05:38:57.049Z,64.80
2022-10-19T05:41:25.598Z,64.31
2022-10-19T05:43:57.304Z,64.35
2022-10-19T05:46:25.544Z,64.26
2022-10-19T05:48:52.622Z,64.25
2022-10-19T05:51:21.701Z,64.49
2022-10-19T05:53:48.730Z,64.33
2022-10-19T05:56:18.074Z,64.34
2022-10-19T05:58:45.142Z,65.10
2022-10-19T06:01:12.524Z,64.42
2022-10-19T06:03:39.148Z,64.21
2022-10-19T06:06:07.576Z,64.59
2022-10-19T06:08:34.697Z,64.45
2022-10-19T06:11:10.707Z,64.09
2022-10-19T06:13:38.423Z,63.87
2022-10-19T06:16:06.228Z,63.78
2022-10-19T06:18:33.315Z,63.66
2022-10-19T06:21:05.709Z,63.62
2022-10-19T06:23:34.190Z,63.77
2022-10-19T06:26:05.947Z,63.36
2022-10-19T06:28:32.751Z,63.27
2022-10-19T06:31:00.238Z,62.70
2022-10-19T06:33:28.098Z,62.84
2022-10-19T06:35:54.662Z,63.34
2022-10-19T06:38:21.543Z,62.94
2022-10-19T06:40:49.219Z,63.25
2022-10-19T06:43:15.879Z,63.90
2022-10-19T06:45:42.451Z,63.41
2022-10-19T06:48:09.104Z,64.59
2022-10-19T06:50:35.684Z,63.67
2022-10-19T06:53:02.335Z,64.43
2022-10-19T06:55:28.903Z,66.51
2022-10-19T06:57:55.483Z,68.55
2022-10-19T07:00:22.076Z,69.16
2022-10-19T07:02:48.646Z,68.70
2022-10-19T07:05:15.326Z,69.28
2022-10-19T07:07:41.958Z,68.50
2022-10-19T07:10:08.970Z,68.89
2022-10-19T07:12:35.559Z,68.94
2022-10-19T07:15:02.142Z,69.05
2022-10-19T07:17:28.783Z,69.05
2022-10-19T07:19:55.483Z,69.27
2022-10-19T07:22:27.211Z,68.93
2022-10-19T07:24:54.739Z,68.65
2022-10-19T07:27:21.687Z,68.77
2022-10-19T07:29:48.283Z,68.85
2022-10-19T07:32:14.873Z,68.36
2022-10-19T07:34:41.521Z,68.25
2022-10-19T07:37:08.149Z,69.23
2022-10-19T07:39:34.724Z,69.79
2022-10-19T07:42:01.358Z,70.58
2022-10-19T07:44:28.107Z,71.36
2022-10-19T07:46:54.739Z,71.39
2022-10-19T07:49:21.850Z,70.49
2022-10-19T07:51:48.439Z,71.49
2022-10-19T07:54:15.427Z,71.96
2022-10-19T07:56:42.012Z,71.99
2022-10-19T07:59:10.299Z,71.36
2022-10-19T08:01:41.432Z,71.27
2022-10-19T08:06:55.179Z,71.58
2022-10-19T08:12:12.456Z,70.53
2022-10-19T08:14:40.603Z,70.47
2022-10-19T08:17:07.195Z,70.32
2022-10-19T08:19:33.783Z,69.63
2022-10-19T08:22:00.381Z,69.84
2022-10-19T08:24:26.978Z,69.20
2022-10-19T08:26:53.558Z,69.03
2022-10-19T08:29:21.124Z,68.60
2022-10-19T08:31:48.984Z,68.26
2022-10-19T08:34:16.553Z,68.67
2022-10-19T08:36:43.352Z,68.01
2022-10-19T08:39:12.681Z,68.11
2022-10-19T08:41:42.358Z,67.61
2022-10-19T08:44:18.223Z,67.83
2022-10-19T08:47:02.401Z,67.29
2022-10-19T08:49:31.831Z,68.11
2022-10-19T08:52:05.076Z,67.67
2022-10-19T08:54:51.147Z,69.91
2022-10-19T08:57:36.882Z,69.85
2022-10-19T09:00:10.315Z,70.00
2022-10-19T09:02:56.593Z,71.19
2022-10-19T09:05:52.792Z,71.97
2022-10-19T09:08:20.606Z,70.78
2022-10-19T09:10:50.994Z,70.28
2022-10-19T09:14:03.836Z,70.72
2022-10-19T09:16:30.355Z,70.55
2022-10-19T09:18:56.985Z,70.92
2022-10-19T09:21:55.157Z,70.49
2022-10-19T09:24:45.702Z,69.12
2022-10-19T09:27:37.501Z,67.76
2022-10-19T09:30:19.116Z,67.18
2022-10-19T09:32:47.477Z,67.30
2022-10-19T09:35:23.271Z,67.16
2022-10-19T09:37:51.238Z,66.82
2022-10-19T09:40:22.539Z,66.85
2022-10-19T09:42:56.947Z,67.25
2022-10-19T09:45:54.071Z,68.20
2022-10-19T09:48:45.820Z,66.46
2022-10-19T09:51:15.027Z,65.97
2022-10-19T09:53:45.965Z,65.55
2022-10-19T09:56:19.862Z,65.13
2022-10-19T09:58:55.339Z,64.98
2022-10-19T10:01:41.952Z,64.37
2022-10-19T10:04:18.604Z,65.69
2022-10-19T10:06:48.101Z,65.03
2022-10-19T10:09:22.318Z,64.76
2022-10-19T10:11:50.922Z,64.34
2022-10-19T10:14:26.923Z,64.25
2022-10-19T10:17:06.353Z,64.51
2022-10-19T10:19:35.645Z,64.73
2022-10-19T10:22:04.190Z,64.19
2022-10-19T10:24:32.917Z,63.77
2022-10-19T10:27:02.339Z,63.70
2022-10-19T10:29:33.679Z,63.69
2022-10-19T10:32:06.192Z,63.54
2022-10-19T10:34:45.956Z,63.81
2022-10-19T10:37:38.915Z,63.05
2022-10-19T10:40:07.859Z,62.55
2022-10-19T10:42:44.311Z,62.85
2022-10-19T10:45:24.937Z,62.50
2022-10-19T10:47:52.969Z,63.89
2022-10-19T10:50:23.900Z,63.70
2022-10-19T10:53:26.879Z,62.72
2022-10-19T10:55:56.247Z,62.37
2022-10-19T10:58:38.943Z,62.02
2022-10-19T11:01:13.328Z,61.82
2022-10-19T11:03:51.388Z,63.44
2022-10-19T11:06:21.133Z,64.82
2022-10-19T11:09:23.101Z,65.72
2022-10-19T11:11:55.979Z,64.93
2022-10-19T11:14:42.785Z,63.91
2022-10-19T11:17:28.486Z,63.95
2022-10-19T11:19:55.179Z,64.23
2022-10-19T11:22:43.625Z,64.26
2022-10-19T11:25:22.210Z,64.58
2022-10-19T11:28:00.715Z,63.61
2022-10-19T11:30:29.401Z,63.08
2022-10-19T11:33:13.084Z,64.16
2022-10-19T11:35:50.376Z,64.04
2022-10-19T11:38:30.892Z,63.69
2022-10-19T11:41:18.275Z,65.30
2022-10-19T11:44:06.544Z,64.02
2022-10-19T11:46:45.740Z,65.44
2022-10-19T11:49:18.192Z,65.31
2022-10-19T11:52:05.706Z,64.68
2022-10-19T11:54:53.239Z,64.94
2022-10-19T11:57:26.249Z,64.39
2022-10-19T12:00:08.142Z,63.58
2022-10-19T12:03:06.006Z,63.93
2022-10-19T12:05:52.275Z,63.33
2022-10-19T12:08:53.864Z,62.51
2022-10-19T12:11:43.716Z,61.83
2022-10-19T12:14:16.418Z,61.34
2022-10-19T12:16:49.734Z,60.14
2022-10-19T12:19:29.502Z,59.58
2022-10-19T12:22:02.355Z,59.47
2022-10-19T12:24:30.658Z,58.41
2022-10-19T12:26:58.456Z,57.78
2022-10-19T12:29:39.654Z,57.29
2022-10-19T12:32:07.223Z,58.28
2022-10-19T12:35:11.094Z,56.63
2022-10-19T12:37:49.779Z,54.90
2022-10-19T12:40:34.099Z,54.38
2022-10-19T12:43:09.176Z,55.18
2022-10-19T12:45:41.558Z,54.39
2022-10-19T12:48:08.085Z,52.96
2022-10-19T12:50:49.877Z,49.96
2022-10-19T12:53:38.778Z,50.32
2022-10-19T12:56:07.351Z,48.61
2022-10-19T12:58:59.759Z,48.33
2022-10-19T13:01:33.943Z,47.05
2022-10-19T13:04:20.802Z,47.32
2022-10-19T13:06:57.306Z,48.81
2022-10-19T13:09:32.813Z,49.50
2022-10-19T13:12:17.877Z,48.75
2022-10-19T13:15:00.011Z,48.51
2022-10-19T13:17:43.989Z,46.45
2022-10-19T13:20:13.673Z,46.37
2022-10-19T13:22:49.534Z,48.08
2022-10-19T13:25:30.998Z,47.87
2022-10-19T13:28:01.319Z,47.65
2022-10-19T13:30:38.200Z,47.15
2022-10-19T13:33:28.570Z,45.74
2022-10-19T13:36:02.651Z,45.06
2022-10-19T13:38:39.908Z,45.80
2022-10-19T13:41:09.132Z,45.93
2022-10-19T13:44:12.089Z,45.24
2022-10-19T13:46:41.278Z,47.12
2022-10-19T13:49:13.091Z,46.66
2022-10-19T13:51:45.410Z,46.64
2022-10-19T13:54:14.626Z,46.23
2022-10-19T13:56:59.881Z,45.70
2022-10-19T13:59:36.922Z,45.77
2022-10-19T14:02:40.346Z,45.99
2022-10-19T14:05:24.972Z,46.46
2022-10-19T14:08:03.316Z,45.37
2022-10-19T14:10:32.947Z,46.32
2022-10-19T14:13:01.892Z,45.21
2022-10-19T14:15:34.231Z,44.38
2022-10-19T14:18:03.738Z,45.32
2022-10-19T14:20:38.413Z,47.09
2022-10-19T14:23:19.520Z,47.62
2022-10-19T14:25:54.856Z,48.41
2022-10-19T14:28:23.494Z,48.97
2022-10-19T14:31:06.948Z,48.72
2022-10-19T14:33:44.364Z,48.90
2022-10-19T14:36:18.082Z,49.79
2022-10-19T14:38:45.231Z,50.25
2022-10-19T14:41:22.035Z,49.97
2022-10-19T14:43:48.636Z,50.25
2022-10-19T14:46:16.442Z,49.66
2022-10-19T14:48:45.915Z,50.30
2022-10-19T14:51:30.501Z,50.06
2022-10-19T14:54:23.991Z,50.50
2022-10-19T14:56:55.601Z,50.17
2022-10-19T14:59:30.085Z,50.42
2022-10-19T15:02:02.603Z,49.52
2022-10-19T15:04:34.396Z,49.23
2022-10-19T15:07:05.113Z,48.47
2022-10-19T15:09:47.884Z,48.14
2022-10-19T15:12:20.090Z,48.33
2022-10-19T15:14:47.965Z,47.19
2022-10-19T15:17:59.319Z,48.53
2022-10-19T15:20:49.351Z,47.66
2022-10-19T15:23:40.722Z,48.23
2022-10-19T15:26:19.688Z,48.78
2022-10-19T15:28:47.507Z,49.10
2022-10-19T15:31:18.450Z,49.44
2022-10-19T15:33:55.255Z,50.26
2022-10-19T15:36:23.459Z,51.43
2022-10-19T15:39:17.949Z,52.51
2022-10-19T15:41:52.129Z,51.88
2022-10-19T15:44:34.109Z,51.94
2022-10-19T15:47:15.901Z,53.46
2022-10-19T15:49:42.500Z,53.30
2022-10-19T15:52:23.729Z,53.95
2022-10-19T15:54:51.564Z,54.57
2022-10-19T15:57:38.356Z,54.58
2022-10-19T16:00:13.131Z,55.36
2022-10-19T16:02:39.813Z,55.91
2022-10-19T16:07:40.831Z,55.17
2022-10-19T16:10:13.313Z,55.34
2022-10-19T16:12:39.912Z,54.57
2022-10-19T16:15:07.111Z,54.89
2022-10-19T16:17:33.967Z,54.35
2022-10-19T16:20:00.719Z,53.71
2022-10-19T16:22:27.358Z,54.43
2022-10-19T16:24:53.939Z,53.86
2022-10-19T16:27:20.607Z,54.11
2022-10-19T16:29:47.189Z,54.16
2022-10-19T16:32:13.823Z,53.40
2022-10-19T16:34:41.399Z,53.73
2022-10-19T16:37:08.025Z,54.04
2022-10-19T16:39:35.128Z,54.71
2022-10-19T16:42:01.759Z,53.92
2022-10-19T16:44:28.394Z,54.02
2022-10-19T16:46:57.922Z,53.97
2022-10-19T16:49:24.775Z,54.13
2022-10-19T16:51:54.711Z,53.73
2022-10-19T16:54:24.610Z,54.10
2022-10-19T16:56:51.196Z,54.17
2022-10-19T16:59:18.809Z,54.63
2022-10-19T17:01:47.189Z,54.21
2022-10-19T17:04:17.211Z,54.57
2022-10-19T17:06:44.210Z,53.87
2022-10-19T17:11:57.504Z,53.40
2022-10-19T17:14:24.102Z,53.56
2022-10-19T17:16:50.679Z,53.33
2022-10-19T17:19:17.311Z,54.06
2022-10-19T17:21:43.918Z,53.39
2022-10-19T17:24:21.989Z,53.97
2022-10-19T17:26:50.882Z,54.04
2022-10-19T17:29:18.087Z,53.53
2022-10-19T17:31:44.745Z,53.68
2022-10-19T17:34:12.086Z,53.14
2022-10-19T17:36:44.777Z,53.06
2022-10-19T17:39:18.187Z,52.76
2022-10-19T17:41:49.431Z,53.19
2022-10-19T17:44:17.450Z,53.67
2022-10-19T17:46:44.919Z,53.68
2022-10-19T17:49:12.574Z,54.32
2022-10-19T17:51:39.547Z,54.18
2022-10-19T17:54:12.256Z,54.04
2022-10-19T17:56:40.255Z,53.45
2022-10-19T17:59:08.887Z,53.35
2022-10-19T18:01:36.943Z,53.71
2022-10-19T18:04:04.267Z,53.48
2022-10-19T18:06:33.474Z,54.37
2022-10-19T18:09:01.794Z,54.03
2022-10-19T18:11:31.195Z,53.90
2022-10-19T18:14:00.618Z,54.53
2022-10-19T18:16:29.153Z,54.10
2022-10-19T18:18:57.737Z,54.56
2022-10-19T18:21:31.240Z,56.93
2022-10-19T18:23:59.319Z,56.24
2022-10-19T18:26:29.687Z,57.12
2022-10-19T18:28:57.379Z,57.53
2022-10-19T18:31:34.066Z,59.32
2022-10-19T18:34:03.002Z,57.84
2022-10-19T18:36:30.667Z,56.67
2022-10-19T18:39:00.579Z,56.74
2022-10-19T18:41:28.340Z,56.59
2022-10-19T18:43:57.354Z,57.84
2022-10-19T18:46:25.958Z,57.59
2022-10-19T18:48:53.654Z,58.10
2022-10-19T18:51:22.118Z,58.71
2022-10-19T18:53:48.833Z,58.38
2022-10-19T18:56:18.464Z,59.01
2022-10-19T18:58:45.559Z,59.16
2022-10-19T19:01:24.832Z,59.77
2022-10-19T19:03:53.987Z,59.57
2022-10-19T19:06:26.281Z,61.40
2022-10-19T19:08:57.255Z,60.08
2022-10-19T19:11:26.016Z,59.85
2022-10-19T19:13:57.992Z,59.64
2022-10-19T19:16:25.863Z,60.38
2022-10-19T19:18:52.497Z,63.19
2022-10-19T19:21:21.712Z,65.11
2022-10-19T19:23:49.552Z,66.21
2022-10-19T19:26:17.455Z,67.21
2022-10-19T19:28:46.393Z,70.69
2022-10-19T19:31:17.263Z,69.28
2022-10-19T19:33:45.463Z,68.25
2022-10-19T19:36:13.758Z,69.32
2022-10-19T19:38:40.775Z,69.15
2022-10-19T19:41:09.475Z,69.56
2022-10-19T19:43:37.407Z,70.26
2022-10-19T19:46:09.375Z,69.73
2022-10-19T19:48:37.054Z,69.59
2022-10-19T19:51:03.888Z,70.06
2022-10-19T19:53:30.683Z,69.39
2022-10-19T19:55:57.328Z,69.12
2022-10-19T19:58:23.917Z,69.21
2022-10-19T20:00:50.555Z,68.95
2022-10-19T20:03:17.190Z,68.33
2022-10-19T20:05:43.822Z,68.41
2022-10-19T20:08:11.322Z,68.20
2022-10-19T20:10:39.781Z,67.65
2022-10-19T20:13:06.696Z,67.29
2022-10-19T20:15:33.637Z,67.56
2022-10-19T20:18:00.208Z,67.48
2022-10-19T20:20:26.791Z,67.43
2022-10-19T20:22:53.431Z,67.60
2022-10-19T20:25:19.987Z,67.33
2022-10-19T20:27:46.579Z,68.20
2022-10-19T20:30:13.208Z,68.11
2022-10-19T20:32:39.809Z,68.65
2022-10-19T20:35:07.538Z,68.23
2022-10-19T20:37:34.326Z,67.92
2022-10-19T20:40:03.389Z,67.41
2022-10-19T20:42:34.199Z,67.74
2022-10-19T20:45:01.050Z,67.67
2022-10-19T20:47:27.723Z,67.93
2022-10-19T20:49:54.385Z,67.70
2022-10-19T20:52:21.047Z,67.56
2022-10-19T20:54:48.470Z,67.55
2022-10-19T20:57:15.318Z,67.87
2022-10-19T20:59:43.948Z,67.88
2022-10-19T21:02:11.376Z,68.44
2022-10-19T21:04:38.131Z,68.73
2022-10-19T21:07:05.139Z,68.97
2022-10-19T21:09:32.054Z,68.80
2022-10-19T21:11:58.711Z,69.42
2022-10-19T21:14:29.983Z,69.73
2022-10-19T21:17:00.347Z,69.53
2022-10-19T21:19:28.882Z,69.63
2022-10-19T21:22:03.712Z,69.67
2022-10-19T21:24:36.048Z,69.51
2022-10-19T21:27:05.197Z,69.30
2022-10-19T21:29:31.865Z,69.09
2022-10-19T21:31:58.544Z,69.22
2022-10-19T21:34:29.964Z,68.67
2022-10-19T21:36:57.714Z,68.89
2022-10-19T21:39:24.362Z,68.60
2022-10-19T21:41:51.007Z,68.64
2022-10-19T21:44:18.687Z,68.81
2022-10-19T21:46:47.885Z,68.29
2022-10-19T21:49:15.135Z,68.52
2022-10-19T21:51:47.390Z,68.25
2022-10-19T21:54:19.262Z,68.33
2022-10-19T21:56:47.290Z,68.14
2022-10-19T21:59:15.053Z,68.09
2022-10-19T22:01:42.027Z,67.85
2022-10-19T22:04:16.920Z,68.19
2022-10-19T22:06:44.171Z,67.71
2022-10-19T22:09:14.110Z,67.44
2022-10-19T22:11:40.780Z,67.62
2022-10-19T22:14:07.622Z,67.18
2022-10-19T22:16:36.974Z,66.73
2022-10-19T22:19:05.351Z,67.61
2022-10-19T22:21:33.687Z,67.62
2022-10-19T22:24:06.814Z,67.69
2022-10-19T22:26:47.881Z,67.53
2022-10-19T22:29:15.018Z,67.26
2022-10-19T22:31:41.980Z,67.30
2022-10-19T22:34:14.834Z,67.42
2022-10-19T22:36:42.071Z,66.95
2022-10-19T22:39:09.163Z,66.75
2022-10-19T22:41:35.771Z,66.88
2022-10-19T22:44:02.537Z,67.01
2022-10-19T22:46:29.156Z,66.63
2022-10-19T22:48:55.801Z,66.07
2022-10-19T22:51:22.454Z,66.38
2022-10-19T22:53:49.013Z,66.54
2022-10-19T22:56:15.630Z,65.60
2022-10-19T22:58:42.278Z,65.55
2022-10-19T23:01:11.582Z,64.48
2022-10-19T23:03:40.342Z,64.59
2022-10-19T23:06:08.620Z,64.40
2022-10-19T23:08:35.424Z,64.50
2022-10-19T23:11:02.163Z,64.67
2022-10-19T23:13:28.963Z,64.78
2022-10-19T23:15:55.687Z,65.23
2022-10-19T23:18:22.344Z,65.07
2022-10-19T23:21:03.999Z,64.33
2022-10-19T23:23:32.542Z,65.00
2022-10-19T23:26:03.625Z,65.30
2022-10-19T23:28:31.599Z,65.25
2022-10-19T23:31:04.746Z,65.00
2022-10-19T23:33:31.956Z,65.06
2022-10-19T23:36:07.138Z,64.82
2022-10-19T23:38:34.483Z,64.86
2022-10-19T23:41:01.188Z,65.18
2022-10-19T23:43:28.073Z,64.74
2022-10-19T23:45:54.765Z,64.54
2022-10-19T23:48:21.557Z,64.22
2022-10-19T23:51:00.045Z,63.79
2022-10-19T23:53:27.965Z,63.49
2022-10-19T23:56:02.398Z,63.32
2022-10-19T23:58:29.366Z,63.62
